• Join FlightAware (Why Join?)
  • Login
  • US Flag 
04:06AM EDT


 

Airport Tracker/Info


-or-


 

Live Flight TrackerFlight Track Log ✈ AAL1624 ✈ 29-Apr-2013 ✈ KLAX - KORD

Flight Track Log - Related Links

Times and Time Zones

All times are in EDT time to prevent confusion due to time zone crossing. See the AAL1624 flight status page for this flight to view local times or setup timezone preferences in your user account.

Time Position Orientation Groundspeed Altitude Reporting Facility
EDT Latitude Longitude Course Direction KTS MPH feet Rate Location/Type
06:32PM 33.9330 -118.4440 263° West 183 211 1,600  Level FlightAware
06:33PM 33.9260 -118.4840 258° West 228 262 2,200 1,980 Climbing FlightAware
06:33PM 33.9090 -118.5360 249° West 263 303 3,600 2,700 Climbing FlightAware
06:34PM 33.8960 -118.5740 248° West 267 307 4,900 2,520 Climbing FlightAware
06:34PM 33.8870 -118.5900 236° Southwest 265 305 5,500 2,640 Climbing FlightAware
06:34PM 33.8740 -118.5990 210° Southwest 268 308 6,000 2,880 Climbing FlightAware
06:34PM 33.8550 -118.6040 192° South 262 302 6,700 2,400 Climbing FlightAware
06:35PM 33.8210 -118.5850 155° Southeast 283 326 7,800 2,160 Climbing FlightAware
06:35PM 33.8110 -118.5470 108° East 300 345 8,700 2,100 Climbing FlightAware
06:35PM 33.8150 -118.5250 78° East 298 343 9,200 2,400 Climbing FlightAware
06:36PM 33.8300 -118.5040 49° Northeast 299 344 9,900 1,860 Climbing FlightAware
06:36PM 33.8850 -118.4660 30° Northeast 319 367 11,100 1,620 Climbing FlightAware
06:37PM 33.9380 -118.4210 35° Northeast 354 407 12,200 1,860 Climbing FlightAware
06:38PM 33.9770 -118.3560 54° Northeast 373 429 13,600 2,160 Climbing FlightAware
06:38PM 34.0120 -118.2920 57° Northeast 384 442 14,900 2,400 Climbing FlightAware
06:39PM 34.0640 -118.2040 54° Northeast 396 456 17,000 2,340 Climbing FlightAware
06:41PM 34.1800 -118.0090 54° Northeast 407 468 21,200 2,160 Climbing FlightAware
06:42PM 34.2630 -117.8900 50° Northeast 414 476 23,500 1,920 Climbing FlightAware
06:43PM 34.3280 -117.7960 50° Northeast 433 498 24,900 1,740 Climbing FlightAware
06:44PM 34.3800 -117.7190 51° Northeast 438 504 26,000 1,620 Climbing FlightAware
06:44PM 34.4320 -117.6440 50° Northeast 441 507 27,100 1,500 Climbing FlightAware
06:45PM 34.4920 -117.5570 50° Northeast 446 513 28,200 1,380 Climbing FlightAware
06:46PM 34.5500 -117.4730 50° Northeast 450 518 29,200 1,440 Climbing FlightAware
06:46PM 34.6030 -117.3950 50° Northeast 448 516 30,300 1,500 Climbing FlightAware
06:47PM 34.6550 -117.3180 51° Northeast 447 514 31,200 1,200 Climbing FlightAware
06:48PM 34.7120 -117.2350 50° Northeast 451 519 32,000 1,260 Climbing FlightAware
06:49PM 34.7710 -117.1480 50° Northeast 449 517 33,000 1,560 Climbing FlightAware
06:49PM 34.8220 -117.0720 51° Northeast 442 509 34,100 1,440 Climbing FlightAware
06:50PM 34.8790 -116.9880 50° Northeast 436 502 35,100 1,200 Climbing FlightAware
06:51PM 34.9310 -116.9110 51° Northeast 433 498 35,800 960 Climbing FlightAware
06:51PM 34.9800 -116.8370 51° Northeast 432 497 36,400 840 Climbing FlightAware
06:52PM 35.0380 -116.7510 51° Northeast 434 499 37,000 420 Climbing FlightAware
06:53PM 35.0800 -116.6890 50° Northeast 435 501 37,000  Level FlightAware
06:53PM 35.1350 -116.6090 50° Northeast 435 501 37,000  Level FlightAware
06:54PM 35.1790 -116.5450 50° Northeast 435 501 37,000  Level FlightAware
06:55PM 35.2230 -116.4810 50° Northeast 435 501 37,000  Level FlightAware
06:55PM 35.2670 -116.4170 50° Northeast 435 501 37,000  Level FlightAware
06:56PM 35.3220 -116.3360 50° Northeast 435 501 37,000  Level FlightAware
06:57PM 35.4100 -116.1920 53° Northeast 428 493 37,000  Level FlightAware
06:58PM 35.4550 -116.1220 52° Northeast 428 493 37,000  Level FlightAware
06:58PM 35.4990 -116.0560 51° Northeast 429 494 37,000  Level FlightAware
06:59PM 35.5640 -115.9570 51° Northeast 429 494 37,000  Level FlightAware
07:00PM 35.6320 -115.8530 51° Northeast 429 494 37,000  Level FlightAware
07:01PM 35.6740 -115.7890 51° Northeast 429 494 37,000  Level FlightAware
07:01PM 35.7160 -115.6990 60° Northeast 436 502 37,000  Level FlightAware
07:02PM 35.7460 -115.6100 67° East 437 503 37,000  Level FlightAware
07:03PM 35.7780 -115.5150 67° East 438 504 37,000  Level FlightAware
07:03PM 35.8120 -115.4120 68° East 437 503 37,000  Level FlightAware
07:04PM 35.8430 -115.3200 67° East 435 501 37,000  Level FlightAware
07:05PM 35.8760 -115.2190 68° East 432 497 37,000  Level FlightAware
07:05PM 35.9070 -115.1260 68° East 430 495 37,000  Level FlightAware
07:06PM 35.9360 -115.0370 68° East 428 493 37,000  Level FlightAware
07:07PM 35.9710 -114.9320 68° East 428 493 37,000  Level FlightAware
07:07PM 35.9990 -114.8430 69° East 428 493 37,000  Level FlightAware
07:08PM 36.0330 -114.7420 67° East 428 493 37,000  Level FlightAware
07:09PM 36.0620 -114.6510 68° East 428 493 37,000  Level FlightAware
07:10PM 36.0910 -114.5620 68° East 428 493 37,000  Level FlightAware
07:10PM 36.1250 -114.4560 68° East 429 494 37,000  Level FlightAware
07:11PM 36.1550 -114.3650 68° East 430 495 37,000  Level FlightAware
07:12PM 36.1870 -114.2650 68° East 431 496 37,000  Level FlightAware
07:12PM 36.2160 -114.1730 69° East 431 496 37,000  Level FlightAware
07:13PM 36.2460 -114.0790 68° East 431 496 37,000  Level FlightAware
07:14PM 36.2790 -113.9760 68° East 431 496 37,000  Level FlightAware
07:14PM 36.3080 -113.8830 69° East 431 496 37,000  Level FlightAware
07:15PM 36.3400 -113.7840 68° East 430 495 37,000  Level FlightAware
07:16PM 36.3690 -113.6920 69° East 429 494 37,000  Level FlightAware
07:17PM 36.3980 -113.5990 69° East 428 493 37,000  Level FlightAware
07:17PM 36.4300 -113.4960 69° East 426 490 37,000  Level FlightAware
07:18PM 36.4570 -113.4090 69° East 425 489 37,000  Level FlightAware
07:19PM 36.4850 -113.3190 69° East 425 489 37,000  Level FlightAware
07:19PM 36.5160 -113.2190 69° East 425 489 37,000  Level FlightAware
07:20PM 36.5400 -113.1420 69° East 425 489 37,000  Level FlightAware
07:21PM 36.5640 -113.0640 69° East 425 489 37,000  Level FlightAware
07:21PM 36.5880 -112.9860 69° East 425 489 37,000  Level FlightAware
07:22PM 36.6110 -112.9080 70° East 425 489 37,000  Level FlightAware
07:23PM 36.6410 -112.8110 69° East 425 489 37,000  Level FlightAware
07:24PM 36.6650 -112.7330 69° East 425 489 37,000  Level FlightAware
07:24PM 36.6890 -112.6560 69° East 425 489 37,000  Level FlightAware
07:25PM 36.7130 -112.5780 69° East 425 489 37,000  Level FlightAware
07:26PM 36.7370 -112.5000 69° East 425 489 37,000  Level FlightAware
07:26PM 36.8120 -112.2440 70° East 435 501 37,000  Level FlightAware
07:27PM 36.8390 -112.1530 70° East 437 503 37,000  Level FlightAware
07:28PM 36.8680 -112.0590 69° East 437 503 37,000  Level FlightAware
07:28PM 36.8930 -111.9790 69° East 437 503 37,000  Level FlightAware
07:29PM 36.9170 -111.8990 69° East 437 503 37,000  Level FlightAware
07:30PM 36.9420 -111.8180 69° East 437 503 37,000  Level FlightAware
07:30PM 36.9660 -111.7380 69° East 437 503 37,000  Level FlightAware
07:31PM 36.9970 -111.6380 69° East 437 503 37,000  Level FlightAware
07:32PM 37.0220 -111.5570 69° East 437 503 37,000  Level FlightAware
07:33PM 37.0460 -111.4770 69° East 437 503 37,000  Level FlightAware
07:33PM 37.0710 -111.3970 69° East 437 503 37,000  Level FlightAware
07:34PM 37.0960 -111.3160 69° East 437 503 37,000  Level FlightAware
07:35PM 37.1270 -111.2150 69° East 437 503 37,000  Level FlightAware
07:35PM 37.1510 -111.1350 69° East 437 503 37,000  Level FlightAware
07:36PM 37.1760 -111.0540 69° East 437 503 37,000  Level FlightAware
07:37PM 37.2000 -110.9740 69° East 437 503 37,000  Level FlightAware
07:38PM 37.2686 -110.6700 69° East 434 499 37,000  Level Denver Center
07:39PM 37.3167 -110.4989 71° East 436 502 37,000  Level Denver Center
07:40PM 37.3567 -110.3544 71° East 439 505 37,000  Level Denver Center
07:41PM 37.3978 -110.2097 70° East 440 506 37,000  Level Denver Center
07:42PM 37.4419 -110.0500 71° East 440 506 37,000  Level Denver Center
07:43PM 37.4794 -109.9122 71° East 437 503 37,000  Level Denver Center
07:44PM 37.5169 -109.7742 71° East 435 501 37,000  Level Denver Center
07:45PM 37.5606 -109.6133 71° East 433 498 37,000  Level Denver Center
07:46PM 37.5992 -109.4739 71° East 437 503 37,000  Level Denver Center
07:47PM 37.6417 -109.3114 72° East 436 502 37,000  Level Denver Center
07:48PM 37.6800 -109.1703 71° East 441 507 37,000  Level Denver Center
07:49PM 37.7233 -109.0064 71° East 439 505 37,000  Level Denver Center
07:50PM 37.7600 -108.8647 72° East 440 506 37,000  Level Denver Center
07:51PM 37.7975 -108.7233 71° East 442 509 37,000  Level Denver Center
07:52PM 37.8400 -108.5611 72° East 436 502 37,000  Level Denver Center
07:53PM 37.8761 -108.4192 72° East 441 507 37,000  Level Denver Center
07:58PM 38.0770 -107.6300 72° East 445 512 37,000  Level FlightAware
07:59PM 38.1020 -107.5320 72° East 443 510 37,000  Level FlightAware
08:00PM 38.1250 -107.4380 73° East 442 509 37,000  Level FlightAware
08:00PM 38.1570 -107.3100 72° East 440 506 37,000  Level FlightAware
08:02PM 38.2150 -107.0730 73° East 439 505 37,000  Level FlightAware
08:03PM 38.2655 -106.8670 73° East 447 514 37,000  Level FlightAware ADS-B
08:04PM 38.2839 -106.7910 73° East 446 513 37,000  Level FlightAware ADS-B
08:04PM 38.3041 -106.7070 73° East 448 516 37,000  Level FlightAware ADS-B
08:05PM 38.3225 -106.6310 73° East 449 517 37,000  Level FlightAware ADS-B
08:05PM 38.3409 -106.5540 73° East 450 518 37,000  Level FlightAware ADS-B
08:06PM 38.3596 -106.4750 73° East 451 519 37,000  Level FlightAware ADS-B
08:06PM 38.3780 -106.3970 73° East 449 517 37,000  Level FlightAware ADS-B
08:07PM 38.3950 -106.3260 73° East 448 516 37,000  Level FlightAware
08:07PM 38.4001 -106.3050 73° East 448 516 37,000  Level FlightAware ADS-B
08:08PM 38.4185 -106.2280 73° East 449 517 37,000  Level FlightAware ADS-B
08:08PM 38.4375 -106.1470 73° East 449 517 37,000  Level FlightAware ADS-B
08:09PM 38.4555 -106.0710 73° East 450 518 37,000  Level FlightAware ADS-B
08:09PM 38.4750 -105.9870 73° East 449 517 37,000  Level FlightAware ADS-B
08:10PM 38.4932 -105.9090 73° East 451 519 37,000  Level FlightAware ADS-B
08:10PM 38.5110 -105.8330 73° East 448 516 37,000  Level FlightAware ADS-B
08:11PM 38.5290 -105.7550 74° East 449 517 37,000  Level FlightAware ADS-B
08:11PM 38.5469 -105.6770 74° East 448 516 37,000  Level FlightAware ADS-B
08:12PM 38.5644 -105.6020 73° East 447 514 37,000  Level FlightAware ADS-B
08:12PM 38.5820 -105.5250 74° East 446 513 37,000  Level FlightAware ADS-B
08:13PM 38.5993 -105.4490 74° East 446 513 37,000  Level FlightAware ADS-B
08:13PM 38.6166 -105.3730 74° East 445 512 37,000  Level FlightAware ADS-B
08:14PM 38.6342 -105.2950 74° East 443 510 37,000  Level FlightAware ADS-B
08:14PM 38.6512 -105.2200 74° East 443 510 37,000  Level FlightAware ADS-B
08:15PM 38.6683 -105.1450 74° East 445 512 37,000  Level FlightAware ADS-B
08:15PM 38.6854 -105.0690 74° East 443 510 37,000  Level FlightAware ADS-B
08:16PM 38.7025 -104.9920 74° East 446 513 37,000  Level FlightAware ADS-B
08:16PM 38.7198 -104.9150 74° East 448 516 37,000  Level FlightAware ADS-B
08:17PM 38.7370 -104.8380 74° East 448 516 37,000  Level FlightAware ADS-B
08:17PM 38.7542 -104.7610 74° East 450 518 37,000  Level FlightAware ADS-B
08:18PM 38.7715 -104.6820 74° East 449 517 37,000  Level FlightAware ADS-B
08:18PM 38.7894 -104.6010 74° East 450 518 37,000  Level FlightAware ADS-B
08:19PM 38.8074 -104.5190 74° East 449 517 37,000  Level FlightAware ADS-B
08:19PM 38.8265 -104.4320 74° East 447 514 37,000  Level FlightAware ADS-B
08:20PM 38.8436 -104.3520 75° East 447 514 37,000  Level FlightAware ADS-B
08:20PM 38.8605 -104.2750 74° East 446 513 37,000 60 Level FlightAware ADS-B
08:21PM 38.8774 -104.1980 74° East 452 520 37,100 780 Climbing FlightAware ADS-B
08:21PM 38.8941 -104.1200 75° East 448 516 37,800 1,140 Climbing FlightAware ADS-B
08:22PM 38.9112 -104.0400 75° East 443 510 38,300 960 Climbing FlightAware ADS-B
08:22PM 38.9274 -103.9640 75° East 439 505 38,800 660 Climbing FlightAware ADS-B
08:23PM 38.9435 -103.8880 75° East 439 505 39,000 180 Climbing FlightAware ADS-B
08:23PM 38.9610 -103.8060 75° East 438 504 39,000  Level FlightAware ADS-B
08:24PM 38.9773 -103.7300 75° East 437 503 39,000  Level FlightAware ADS-B
08:25PM 38.9940 -103.6510 75° East 438 504 39,000  Level FlightAware ADS-B
08:25PM 39.0102 -103.5740 75° East 439 505 39,000  Level FlightAware ADS-B
08:26PM 39.0260 -103.4980 75° East 439 505 39,000  Level FlightAware ADS-B
08:26PM 39.0419 -103.4220 75° East 440 506 39,000  Level FlightAware ADS-B
08:27PM 39.0578 -103.3450 75° East 441 507 39,000  Level FlightAware ADS-B
08:27PM 39.0738 -103.2680 75° East 441 507 39,000  Level FlightAware ADS-B
08:28PM 39.0903 -103.1890 75° East 442 509 39,000  Level FlightAware ADS-B
08:28PM 39.1059 -103.1130 75° East 441 507 39,000  Level FlightAware ADS-B
08:29PM 39.1215 -103.0370 75° East 441 507 39,000  Level FlightAware ADS-B
08:29PM 39.1370 -102.9610 75° East 440 506 39,000  Level FlightAware ADS-B
08:30PM 39.1528 -102.8830 75° East 441 507 39,000  Level FlightAware ADS-B
08:30PM 39.1690 -102.8030 75° East 441 507 39,000  Level FlightAware ADS-B
08:31PM 39.1846 -102.7260 75° East 441 507 39,000  Level FlightAware ADS-B
08:31PM 39.2000 -102.6500 75° East 442 509 39,000  Level FlightAware ADS-B
08:32PM 39.2153 -102.5730 76° East 442 509 39,000  Level FlightAware ADS-B
08:32PM 39.2314 -102.4930 75° East 443 510 39,000  Level FlightAware ADS-B
08:33PM 39.2471 -102.4140 76° East 444 511 39,000  Level FlightAware ADS-B
08:33PM 39.2630 -102.3330 76° East 445 512 39,000  Level FlightAware ADS-B
08:34PM 39.2787 -102.2540 76° East 446 513 39,000  Level FlightAware ADS-B
08:34PM 39.2948 -102.1720 76° East 447 514 39,000  Level FlightAware ADS-B
08:35PM 39.3105 -102.0920 76° East 447 514 39,000  Level FlightAware ADS-B
08:35PM 39.3259 -102.0130 76° East 448 516 39,000  Level FlightAware ADS-B
08:36PM 39.3411 -101.9350 76° East 449 517 39,000  Level FlightAware ADS-B
08:36PM 39.3565 -101.8560 76° East 451 519 39,000  Level FlightAware ADS-B
08:37PM 39.3773 -101.7470 76° East 451 519 39,000  Level FlightAware ADS-B
08:37PM 39.3835 -101.7130 77° East 444 511 39,000  Level FlightAware ADS-B
08:37PM 39.3891 -101.6680 81° East 447 514 39,000  Level FlightAware ADS-B
08:38PM 39.3951 -101.5870 84° East 449 517 39,000  Level FlightAware ADS-B
08:38PM 39.4012 -101.5050 84° East 450 518 39,000  Level FlightAware ADS-B
08:39PM 39.4077 -101.4180 84° East 449 517 39,000  Level FlightAware ADS-B
08:40PM 39.4135 -101.3370 85° East 449 517 39,000  Level FlightAware ADS-B
08:40PM 39.4192 -101.2560 85° East 448 516 39,000  Level FlightAware ADS-B
08:41PM 39.4248 -101.1740 85° East 448 516 39,000  Level FlightAware ADS-B
08:41PM 39.4307 -101.0900 85° East 450 518 39,000  Level FlightAware ADS-B
08:42PM 39.4362 -101.0090 85° East 453 521 39,000  Level FlightAware ADS-B
08:42PM 39.4381 -100.9858 85° East 445 512 39,000  Level Denver Center
08:43PM 39.4475 -100.8297 85° East 452 520 39,000  Level Denver Center
08:44PM 39.4594 -100.6506 85° East 451 519 39,000  Level Denver Center
08:45PM 39.4678 -100.5228 85° East 450 518 39,000  Level Denver Center
08:46PM 39.4811 -100.3167 85° East 451 519 39,000  Level Denver Center
08:47PM 39.4900 -100.1600 86° East 456 525 39,000  Level Denver Center
08:48PM 39.5014 -99.9769 85° East 459 528 39,000  Level Denver Center
08:49PM 39.5194 -99.8172 82° East 458 527 39,000  Level Denver Center
08:50PM 39.5364 -99.6544 82° East 457 526 39,000  Level Denver Center
08:51PM 39.5536 -99.4956 82° East 450 518 39,000  Level Denver Center
08:52PM 39.5708 -99.3347 82° East 450 518 39,000  Level Denver Center
08:53PM 39.5875 -99.1761 82° East 447 514 39,000  Level Denver Center
08:54PM 39.6069 -98.9792 83° East 458 527 39,000  Level Denver Center
08:55PM 39.6236 -98.8178 82° East 454 522 39,000  Level Denver Center
08:56PM 39.6300 -98.7550 82° East 454 522 39,000  Level Minneapolis Center
08:57PM 39.6483 -98.5572 83° East 460 529 39,000  Level Minneapolis Center
08:58PM 39.6650 -98.3933 82° East 460 529 39,000  Level Minneapolis Center
08:59PM 39.6806 -98.2278 83° East 461 531 39,000  Level Minneapolis Center
09:00PM 39.6961 -98.0614 83° East 464 534 39,000  Level Minneapolis Center
09:01PM 39.7103 -97.8961 84° East 463 533 39,000  Level Minneapolis Center
09:02PM 39.7281 -97.6981 83° East 462 532 39,000  Level Minneapolis Center
09:03PM 39.7436 -97.5347 83° East 459 528 39,000  Level Minneapolis Center
09:04PM 39.7575 -97.3703 84° East 459 528 39,000  Level Minneapolis Center
09:10PM 39.8280 -96.5210 84° East 456 525 39,000  Level FlightAware
09:11PM 39.8380 -96.4020 84° East 456 525 39,000  Level FlightAware
09:11PM 39.8440 -96.3260 84° East 456 525 39,000  Level FlightAware
09:12PM 39.8570 -96.1560 84° East 457 526 39,000  Level FlightAware
09:13PM 39.8660 -96.0330 85° East 458 527 39,000  Level FlightAware
09:14PM 39.8720 -95.9490 85° East 458 527 39,000  Level FlightAware
09:14PM 39.8920 -95.6760 84° East 460 529 39,000  Level FlightAware
09:15PM 39.8920 -95.6810 270° West 460 529 39,000  Level FlightAware
09:16PM 39.8980 -95.5910 85° East 460 529 39,000  Level FlightAware
09:17PM 39.9070 -95.4610 85° East 467 537 39,000  Level FlightAware
09:17PM 39.9260 -95.1930 85° East 468 539 39,000  Level FlightAware
09:18PM 39.9320 -95.1040 85° East 468 539 39,000  Level FlightAware
09:19PM 39.9420 -94.9560 85° East 466 536 39,000  Level FlightAware
09:19PM 39.9480 -94.8490 86° East 465 535 39,000  Level FlightAware
09:20PM 39.9560 -94.7310 85° East 462 532 39,000  Level FlightAware
09:21PM 39.9630 -94.6140 85° East 458 527 39,000  Level FlightAware
09:21PM 39.9700 -94.5020 85° East 457 526 39,000  Level FlightAware
09:22PM 39.9780 -94.3740 85° East 458 527 39,000  Level FlightAware
09:23PM 39.9850 -94.2650 85° East 462 532 39,000  Level FlightAware
09:23PM 39.9910 -94.1530 86° East 465 535 39,000  Level FlightAware
09:24PM 39.9980 -94.0310 86° East 465 535 39,000  Level FlightAware
09:25PM 40.0080 -93.9200 83° East 465 535 39,000  Level FlightAware
09:26PM 40.0210 -93.7900 83° East 467 537 39,000  Level FlightAware
09:26PM 40.0320 -93.6810 82° East 468 539 39,000  Level FlightAware
09:27PM 40.0440 -93.5570 83° East 469 540 39,000  Level FlightAware
09:28PM 40.0630 -93.4480 77° East 467 537 39,000  Level FlightAware
09:28PM 40.0890 -93.3440 72° East 468 539 39,000  Level FlightAware
09:29PM 40.1200 -93.2170 72° East 466 536 39,000  Level FlightAware
09:30PM 40.1470 -93.1100 72° East 465 535 39,000  Level FlightAware
09:30PM 40.1720 -93.0070 72° East 462 532 39,000  Level FlightAware
09:31PM 40.2020 -92.8880 72° East 460 529 39,000  Level FlightAware
09:32PM 40.2210 -92.8110 72° East 459 528 39,000  Level FlightAware
09:33PM 40.2530 -92.6760 73° East 458 527 39,000  Level FlightAware
09:33PM 40.2800 -92.5650 72° East 458 527 39,000  Level FlightAware
09:34PM 40.3070 -92.4530 72° East 459 528 39,000 -300 Level FlightAware
09:35PM 40.3360 -92.3340 72° East 459 528 38,600 -720 Descending FlightAware
09:35PM 40.3610 -92.2250 73° East 460 529 38,000 -960 Descending FlightAware
09:36PM 40.3910 -92.1030 72° East 470 541 37,300 -1,020 Descending FlightAware
09:37PM 40.4150 -91.9970 73° East 474 545 36,600 -1,080 Descending FlightAware
09:38PM 40.4430 -91.8780 73° East 479 551 35,800 -1,140 Descending FlightAware
09:38PM 40.4710 -91.7590 73° East 484 557 35,000 -1,200 Descending FlightAware
09:39PM 40.4980 -91.6460 73° East 493 567 34,200 -1,140 Descending FlightAware
09:40PM 40.5260 -91.5230 73° East 497 572 33,400 -900 Descending FlightAware
09:40PM 40.5560 -91.3990 72° East 495 570 33,000 -300 Descending FlightAware
09:41PM 40.5920 -91.2910 66° East 493 567 33,000  Level FlightAware
09:42PM 40.6340 -91.1690 66° East 493 567 33,000  Level FlightAware
09:42PM 40.6710 -91.0600 66° East 492 566 33,000  Level FlightAware
09:43PM 40.7130 -90.9360 66° East 493 567 33,000  Level FlightAware
09:44PM 40.7500 -90.8260 66° East 494 568 33,000  Level FlightAware
09:45PM 40.7920 -90.7030 66° East 494 568 33,000  Level FlightAware
09:45PM 40.8280 -90.5970 66° East 493 567 33,000  Level FlightAware
09:46PM 40.8640 -90.4890 66° East 494 568 33,000 -780 Level FlightAware
09:47PM 40.9080 -90.3570 66° East 494 568 31,900 -1,680 Descending FlightAware
09:47PM 40.9430 -90.2500 67° East 486 559 30,700 -1,920 Descending FlightAware
09:48PM 40.9800 -90.1390 66° East 479 551 29,400 -1,980 Descending FlightAware
09:49PM 41.0180 -90.0210 67° East 470 541 27,900 -1,980 Descending FlightAware
09:49PM 41.0530 -89.9150 66° East 464 534 26,600 -1,920 Descending FlightAware
09:50PM 41.0920 -89.7980 66° East 457 526 25,200 -1,920 Descending FlightAware
09:51PM 41.1230 -89.7010 67° East 447 514 23,900 -1,980 Descending FlightAware
09:51PM 41.1550 -89.6020 67° East 438 504 22,600 -2,100 Descending FlightAware
09:52PM 41.1970 -89.4950 62° Northeast 429 494 21,000 -2,100 Descending FlightAware
09:53PM 41.2350 -89.4010 62° Northeast 419 482 19,700 -1,980 Descending FlightAware
09:54PM 41.2750 -89.3040 61° Northeast 409 471 18,200 -2,100 Descending FlightAware
09:54PM 41.3120 -89.2110 62° Northeast 402 463 16,800 -1,980 Descending FlightAware
09:55PM 41.3460 -89.1260 62° Northeast 396 456 15,600 -1,800 Descending FlightAware
09:56PM 41.3810 -89.0380 62° Northeast 392 451 14,300 -1,860 Descending FlightAware
09:56PM 41.4170 -88.9470 62° Northeast 386 444 13,000 -1,860 Descending FlightAware
09:57PM 41.4540 -88.8560 61° Northeast 381 438 11,700 -1,380 Descending FlightAware
09:58PM 41.4860 -88.7750 62° Northeast 372 428 11,100 -480 Descending FlightAware
09:58PM 41.5190 -88.6910 62° Northeast 369 425 11,100  Level FlightAware
09:59PM 41.5550 -88.5990 62° Northeast 370 426 11,100 -120 Level FlightAware
10:00PM 41.5860 -88.5220 62° Northeast 371 427 11,000 -480 Descending FlightAware
10:01PM 41.6220 -88.4450 58° Northeast 371 427 10,500 -660 Descending FlightAware
10:01PM 41.6710 -88.3610 52° Northeast 365 420 10,100 -300 Descending FlightAware
10:02PM 41.7110 -88.2920 52° Northeast 347 399 10,100 -300 Level FlightAware
10:02PM 41.7400 -88.2420 52° Northeast 326 375 9,800 -840 Descending FlightAware
10:03PM 41.7660 -88.1980 52° Northeast 317 365 9,300 -1,200 Descending FlightAware
10:03PM 41.7900 -88.1560 53° Northeast 312 359 8,700 -1,320 Descending FlightAware
10:04PM 41.8150 -88.1130 52° Northeast 308 354 8,100 -1,320 Descending FlightAware
10:04PM 41.8420 -88.0790 43° Northeast 301 346 7,500 -1,200 Descending FlightAware
10:05PM 41.8570 -88.0650 35° Northeast 293 337 7,300 -600 Descending FlightAware
10:05PM 41.8770 -88.0600 11° North 284 327 7,200 -300 Descending FlightAware
10:05PM 41.9170 -88.0660 354° North 275 316 7,100 -120 Descending FlightAware
10:06PM 41.9460 -88.0700 354° North 252 290 7,100  Level FlightAware
10:06PM 41.9800 -88.0760 353° North 241 277 7,100 -420 Level FlightAware
10:06PM 41.9950 -88.0860 334° Northwest 228 262 6,800 -1,080 Descending FlightAware
10:07PM 42.0160 -88.1060 325° Northwest 222 255 6,400 -1,440 Descending FlightAware
10:07PM 42.0410 -88.1300 325° Northwest 234 269 5,500 -1,740 Descending FlightAware
10:08PM 42.0550 -88.1420 328° Northwest 241 277 5,100 -1,440 Descending FlightAware
10:08PM 42.0650 -88.1460 343° North 249 287 4,900 -1,200 Descending FlightAware
10:08PM 42.0970 -88.1260 25° Northeast 236 272 4,300 -1,200 Descending FlightAware
10:09PM 42.1080 -88.1120 43° Northeast 232 267 4,000 -1,440 Descending FlightAware
10:09PM 42.1130 -88.0930 70° East 218 251 3,600 -1,380 Descending FlightAware
10:09PM 42.1050 -88.0640 110° East 182 209 3,100 -1,200 Descending FlightAware
10:10PM 42.0870 -88.0420 138° Southeast 170 196 2,500 -840 Descending FlightAware
10:10PM 42.0780 -88.0320 140° Southeast 173 199 2,500  Level FlightAware
10:10PM 42.0630 -88.0150 140° Southeast 172 198 2,500 -180 Level FlightAware
10:11PM 42.0540 -88.0050 140° Southeast 158 182 2,400 -720 Descending FlightAware
10:11PM 42.0390 -87.9880 140° Southeast 136 157 2,000 -780 Descending FlightAware
10:12PM 42.0260 -87.9740 141° Southeast 135 155 1,700 -660 Descending FlightAware
10:12PM 42.0130 -87.9590 139° Southeast 136 157 1,400 -720 Descending FlightAware
10:12PM 42.0030 -87.9470 138° Southeast 141 162 1,100 -780 Descending FlightAware
10:13PM 41.9850 -87.9280 142° Southeast 139 160 700 -720 Descending FlightAware